createdAt,value
2023-03-26T00:04:25.388Z,13.63
2023-03-26T00:09:27.147Z,13.10
2023-03-26T00:14:30.037Z,13.03
2023-03-26T00:19:32.256Z,14.10
2023-03-26T00:24:33.991Z,10.93
2023-03-26T00:29:35.870Z,15.43
2023-03-26T00:34:37.613Z,13.60
2023-03-26T00:39:39.418Z,10.93
2023-03-26T00:44:41.149Z,14.17
2023-03-26T00:49:42.832Z,15.23
2023-03-26T00:54:48.463Z,14.33
2023-03-26T00:59:50.398Z,15.97
2023-03-26T01:04:57.735Z,13.20
2023-03-26T01:10:00.374Z,13.27
2023-03-26T01:15:04.032Z,9.90
2023-03-26T01:20:26.566Z,11.87
2023-03-26T01:25:33.964Z,12.70
2023-03-26T01:30:42.530Z,11.83
2023-03-26T01:36:02.137Z,9.90
2023-03-26T01:41:32.254Z,11.87
2023-03-26T01:46:36.401Z,12.30
2023-03-26T01:51:38.668Z,14.70
2023-03-26T01:57:00.009Z,14.60
2023-03-26T02:02:21.794Z,16.30
2023-03-26T02:07:44.804Z,13.30
2023-03-26T02:12:46.682Z,16.10
2023-03-26T02:17:49.676Z,12.03
2023-03-26T02:22:51.494Z,13.37
2023-03-26T02:27:53.748Z,11.90
2023-03-26T02:32:59.262Z,13.53
2023-03-26T02:38:01.178Z,11.50
2023-03-26T02:43:02.903Z,12.80
2023-03-26T02:48:05.108Z,18.93
2023-03-26T02:53:06.973Z,13.23
2023-03-26T02:58:08.719Z,16.80
2023-03-26T03:03:10.551Z,16.47
2023-03-26T03:08:12.401Z,16.63
2023-03-26T03:13:15.041Z,10.90
2023-03-26T03:18:16.872Z,20.03
2023-03-26T03:23:18.651Z,13.13
2023-03-26T03:28:20.522Z,16.27
2023-03-26T03:33:22.251Z,17.30
2023-03-26T03:38:24.075Z,22.43
2023-03-26T03:43:27.491Z,14.47
2023-03-26T03:48:29.634Z,13.87
2023-03-26T03:53:31.714Z,18.63
2023-03-26T03:58:34.604Z,16.33
2023-03-26T04:03:38.802Z,15.37
2023-03-26T04:08:40.928Z,14.37
2023-03-26T04:13:42.905Z,20.07
2023-03-26T04:18:46.390Z,12.70
2023-03-26T04:23:48.087Z,12.60
2023-03-26T04:28:53.329Z,13.73
2023-03-26T04:34:01.505Z,18.87
2023-03-26T04:39:05.127Z,14.97
2023-03-26T04:44:06.969Z,12.07
2023-03-26T04:49:08.878Z,10.33
2023-03-26T04:54:12.641Z,9.00
2023-03-26T04:59:19.361Z,8.23
2023-03-26T05:04:21.195Z,10.47
2023-03-26T05:09:22.980Z,7.93
2023-03-26T05:14:24.899Z,8.07
2023-03-26T05:19:27.250Z,9.47
2023-03-26T05:24:29.040Z,7.07
2023-03-26T05:29:30.958Z,9.43
2023-03-26T05:34:32.619Z,8.77
2023-03-26T05:39:35.570Z,9.03
2023-03-26T05:44:37.253Z,9.87
2023-03-26T05:49:38.976Z,9.60
2023-03-26T05:54:41.463Z,8.63
2023-03-26T05:59:43.173Z,9.90
2023-03-26T06:04:45.773Z,8.77
2023-03-26T06:09:47.778Z,9.40
2023-03-26T06:14:49.614Z,9.00
2023-03-26T06:19:51.363Z,9.07
2023-03-26T06:24:53.077Z,10.53
2023-03-26T06:29:55.089Z,8.73
2023-03-26T06:34:56.844Z,7.87
2023-03-26T06:39:58.629Z,7.33
2023-03-26T06:45:00.317Z,9.17
2023-03-26T06:50:02.153Z,8.23
2023-03-26T06:55:06.496Z,7.30
2023-03-26T07:00:08.969Z,9.00
2023-03-26T07:05:10.963Z,7.53
2023-03-26T07:10:13.114Z,7.57
2023-03-26T07:15:14.848Z,9.83
2023-03-26T07:20:16.789Z,6.33
2023-03-26T07:25:19.483Z,7.07
2023-03-26T07:30:25.556Z,7.57
2023-03-26T07:35:32.617Z,7.53
2023-03-26T07:41:13.122Z,7.07
2023-03-26T07:46:15.894Z,7.60
2023-03-26T07:51:18.800Z,9.70
2023-03-26T07:56:28.976Z,10.53
2023-03-26T08:01:52.249Z,8.73
2023-03-26T08:06:59.605Z,14.53
2023-03-26T08:12:22.882Z,8.67
2023-03-26T08:17:51.016Z,9.83
2023-03-26T08:23:05.420Z,8.30
2023-03-26T08:28:30.485Z,9.43
2023-03-26T08:33:34.657Z,11.13
2023-03-26T08:38:37.764Z,11.50
2023-03-26T08:44:09.377Z,10.17
2023-03-26T08:49:29.778Z,12.67
2023-03-26T08:55:04.279Z,9.40
2023-03-26T09:00:33.939Z,12.77
2023-03-26T09:05:50.160Z,12.47
2023-03-26T09:11:18.101Z,13.27
2023-03-26T09:16:37.990Z,8.53
2023-03-26T09:21:52.283Z,9.33
2023-03-26T09:27:26.450Z,12.13
2023-03-26T09:33:11.595Z,8.87
2023-03-26T09:38:34.196Z,8.17
2023-03-26T09:43:54.484Z,9.07
2023-03-26T09:49:01.996Z,9.40
2023-03-26T09:54:20.401Z,9.23
2023-03-26T09:59:40.708Z,6.77
2023-03-26T10:05:18.572Z,10.00
2023-03-26T10:10:32.148Z,8.67
2023-03-26T10:15:58.614Z,8.37
2023-03-26T10:21:09.880Z,9.30
2023-03-26T10:27:09.235Z,8.13
2023-03-26T10:32:27.886Z,9.63
2023-03-26T10:37:58.874Z,9.13
2023-03-26T10:43:22.283Z,9.43
2023-03-26T10:48:42.562Z,7.40
2023-03-26T10:54:03.522Z,9.33
2023-03-26T10:59:08.247Z,8.37
2023-03-26T11:04:28.817Z,11.77
2023-03-26T11:09:34.861Z,9.97
2023-03-26T11:15:14.715Z,8.10
2023-03-26T11:20:50.576Z,8.33
2023-03-26T11:26:20.385Z,7.80
2023-03-26T11:31:41.007Z,7.33
2023-03-26T11:36:51.299Z,7.93
2023-03-26T11:42:01.836Z,6.37
2023-03-26T11:47:10.108Z,6.50
2023-03-26T11:52:12.458Z,4.87
2023-03-26T11:57:26.727Z,5.60
2023-03-26T12:02:38.749Z,6.00
2023-03-26T12:07:57.365Z,5.03
2023-03-26T12:13:21.191Z,8.50
2023-03-26T12:18:28.150Z,8.03
2023-03-26T12:23:58.788Z,6.33
2023-03-26T12:29:15.945Z,7.97
2023-03-26T12:34:20.683Z,6.47
2023-03-26T12:40:09.299Z,7.63
2023-03-26T12:45:06.894Z,10.77
2023-03-26T12:50:14.491Z,8.30
2023-03-26T12:55:40.436Z,8.10
2023-03-26T13:01:11.259Z,7.77
2023-03-26T13:07:00.346Z,9.87
2023-03-26T13:12:09.382Z,10.60
2023-03-26T13:17:21.776Z,9.20
2023-03-26T13:22:48.948Z,10.47
2023-03-26T13:28:00.530Z,7.93
2023-03-26T13:33:19.594Z,12.80
2023-03-26T13:38:38.288Z,10.37
2023-03-26T13:43:48.734Z,12.10
2023-03-26T13:48:56.333Z,8.63
2023-03-26T13:54:18.076Z,10.60
2023-03-26T13:59:31.396Z,8.10
2023-03-26T14:04:46.468Z,10.77
2023-03-26T14:10:19.265Z,6.40
2023-03-26T14:15:46.894Z,6.93
2023-03-26T14:21:00.801Z,6.30
2023-03-26T14:26:05.239Z,4.30
2023-03-26T14:31:28.921Z,5.67
2023-03-26T14:36:55.519Z,5.10
2023-03-26T14:42:02.937Z,7.07
2023-03-26T14:47:17.524Z,6.17
2023-03-26T14:52:47.946Z,7.00
2023-03-26T14:58:27.945Z,5.77
2023-03-26T15:04:05.652Z,5.03
2023-03-26T15:09:25.129Z,4.77
2023-03-26T15:14:46.030Z,6.33
2023-03-26T15:20:26.034Z,5.43
2023-03-26T15:26:20.444Z,7.20
2023-03-26T15:31:50.225Z,4.53
2023-03-26T15:37:34.341Z,4.40
2023-03-26T15:43:01.475Z,5.00
2023-03-26T15:48:12.680Z,4.80
2023-03-26T15:53:33.621Z,5.33
2023-03-26T15:59:05.381Z,4.17
2023-03-26T16:04:26.440Z,5.60
2023-03-26T16:09:39.101Z,6.90
2023-03-26T16:15:05.372Z,3.93
2023-03-26T16:20:31.161Z,7.50
2023-03-26T16:25:35.247Z,4.60
2023-03-26T16:30:37.268Z,4.00
2023-03-26T16:35:50.212Z,6.20
2023-03-26T16:41:03.634Z,5.53
2023-03-26T16:46:05.709Z,7.70
2023-03-26T16:51:21.700Z,4.90
2023-03-26T16:56:42.198Z,5.60
2023-03-26T17:01:50.804Z,4.43
2023-03-26T17:07:04.110Z,4.33
2023-03-26T17:12:19.211Z,5.90
2023-03-26T17:17:30.646Z,6.53
2023-03-26T17:22:48.045Z,8.10
2023-03-26T17:28:24.069Z,6.73
2023-03-26T17:33:26.896Z,6.50
2023-03-26T17:38:28.613Z,7.60
2023-03-26T17:43:34.369Z,6.80
2023-03-26T17:48:40.889Z,6.37
2023-03-26T17:53:42.730Z,6.70
2023-03-26T17:58:52.645Z,8.67
2023-03-26T18:04:01.349Z,7.43
2023-03-26T18:09:24.951Z,6.50
2023-03-26T18:14:38.744Z,6.03
2023-03-26T18:19:55.921Z,8.40
2023-03-26T18:25:00.610Z,7.90
2023-03-26T18:30:14.296Z,6.93
2023-03-26T18:35:21.203Z,16.03
2023-03-26T18:40:25.634Z,10.17
2023-03-26T18:45:36.338Z,8.13
2023-03-26T18:50:42.020Z,9.40
2023-03-26T18:55:44.330Z,11.13
2023-03-26T19:00:46.303Z,12.83
2023-03-26T19:05:48.916Z,12.93
2023-03-26T19:10:51.993Z,10.27
2023-03-26T19:15:56.786Z,16.90
2023-03-26T19:21:01.062Z,11.53
2023-03-26T19:26:06.444Z,9.40
2023-03-26T19:31:12.473Z,7.07
2023-03-26T19:36:17.863Z,5.70
2023-03-26T19:41:24.171Z,6.70
2023-03-26T19:46:28.186Z,8.53
2023-03-26T19:51:37.090Z,7.47
2023-03-26T19:56:38.827Z,7.07
2023-03-26T20:01:40.707Z,6.90
2023-03-26T20:06:44.040Z,6.27
2023-03-26T20:11:47.531Z,7.17
2023-03-26T20:16:49.367Z,9.37
2023-03-26T20:21:52.731Z,7.97
2023-03-26T20:26:54.441Z,9.27
2023-03-26T20:31:56.309Z,5.43
2023-03-26T20:37:01.315Z,7.10
2023-03-26T20:42:03.395Z,5.93
2023-03-26T20:47:05.359Z,6.60
2023-03-26T20:52:07.214Z,8.40
2023-03-26T20:57:11.779Z,6.03
2023-03-26T21:02:13.799Z,7.00
2023-03-26T21:07:18.482Z,10.13
2023-03-26T21:12:41.193Z,9.97
2023-03-26T21:17:43.453Z,7.67
2023-03-26T21:23:12.725Z,8.33
2023-03-26T21:28:45.374Z,9.67
2023-03-26T21:33:49.317Z,9.47
2023-03-26T21:38:54.629Z,5.67
2023-03-26T21:43:56.339Z,6.53
2023-03-26T21:48:58.363Z,9.47
2023-03-26T21:54:00.570Z,5.73
2023-03-26T21:59:27.444Z,6.83
2023-03-26T22:04:39.099Z,5.80
2023-03-26T22:09:41.340Z,6.37
2023-03-26T22:14:43.063Z,6.97
2023-03-26T22:19:45.087Z,6.40
2023-03-26T22:24:46.789Z,7.93
2023-03-26T22:29:48.550Z,10.70
2023-03-26T22:34:52.093Z,7.60
2023-03-26T22:39:53.760Z,6.17
2023-03-26T22:44:56.895Z,7.57
2023-03-26T22:49:58.591Z,8.00
2023-03-26T22:55:00.333Z,7.77
2023-03-26T23:00:13.272Z,6.90
2023-03-26T23:05:18.526Z,6.13
2023-03-26T23:10:21.647Z,9.27
2023-03-26T23:15:25.894Z,7.33
2023-03-26T23:20:27.812Z,7.90
2023-03-26T23:25:30.533Z,7.47
2023-03-26T23:30:32.388Z,7.87
2023-03-26T23:35:36.121Z,8.30
2023-03-26T23:40:40.099Z,6.70
2023-03-26T23:45:45.219Z,9.40
2023-03-26T23:50:53.222Z,7.87
2023-03-26T23:56:05.975Z,8.43
